sensor_id;sensor_type;location;lat;lon;timestamp;P1;durP1;ratioP1;P2;durP2;ratioP2
3647;SDS011;1840;48.892;15.312;2024-02-15T00:00:45;5.10;;;2.30;;
3647;SDS011;1840;48.892;15.312;2024-02-15T00:03:13;5.80;;;2.83;;
3647;SDS011;1840;48.892;15.312;2024-02-15T00:05:43;5.33;;;3.60;;
3647;SDS011;1840;48.892;15.312;2024-02-15T00:08:12;4.73;;;2.90;;
3647;SDS011;1840;48.892;15.312;2024-02-15T00:10:42;5.20;;;3.67;;
3647;SDS011;1840;48.892;15.312;2024-02-15T00:13:12;3.40;;;2.20;;
3647;SDS011;1840;48.892;15.312;2024-02-15T00:15:42;4.43;;;2.40;;
3647;SDS011;1840;48.892;15.312;2024-02-15T00:18:15;3.90;;;2.40;;
3647;SDS011;1840;48.892;15.312;2024-02-15T00:20:43;8.67;;;3.60;;
3647;SDS011;1840;48.892;15.312;2024-02-15T00:23:12;5.83;;;2.73;;
3647;SDS011;1840;48.892;15.312;2024-02-15T00:25:43;3.40;;;2.33;;
3647;SDS011;1840;48.892;15.312;2024-02-15T00:28:11;4.13;;;2.43;;
3647;SDS011;1840;48.892;15.312;2024-02-15T00:30:40;3.73;;;2.47;;
3647;SDS011;1840;48.892;15.312;2024-02-15T00:33:10;4.17;;;2.63;;
3647;SDS011;1840;48.892;15.312;2024-02-15T00:35:39;3.93;;;2.60;;
3647;SDS011;1840;48.892;15.312;2024-02-15T00:38:08;5.33;;;2.70;;
3647;SDS011;1840;48.892;15.312;2024-02-15T00:40:36;4.77;;;3.13;;
3647;SDS011;1840;48.892;15.312;2024-02-15T00:43:06;4.13;;;2.70;;
3647;SDS011;1840;48.892;15.312;2024-02-15T00:45:35;7.50;;;3.23;;
3647;SDS011;1840;48.892;15.312;2024-02-15T00:48:04;4.67;;;2.93;;
3647;SDS011;1840;48.892;15.312;2024-02-15T00:50:35;8.57;;;3.20;;
3647;SDS011;1840;48.892;15.312;2024-02-15T00:53:03;6.47;;;3.30;;
3647;SDS011;1840;48.892;15.312;2024-02-15T00:55:32;4.70;;;2.70;;
3647;SDS011;1840;48.892;15.312;2024-02-15T00:58:00;4.20;;;2.70;;
3647;SDS011;1840;48.892;15.312;2024-02-15T01:00:29;4.07;;;2.50;;
3647;SDS011;1840;48.892;15.312;2024-02-15T01:02:57;4.87;;;2.90;;
3647;SDS011;1840;48.892;15.312;2024-02-15T01:05:26;4.57;;;2.57;;
3647;SDS011;1840;48.892;15.312;2024-02-15T01:07:56;8.30;;;2.40;;
3647;SDS011;1840;48.892;15.312;2024-02-15T01:10:25;5.33;;;2.77;;
3647;SDS011;1840;48.892;15.312;2024-02-15T01:12:54;8.07;;;2.90;;
3647;SDS011;1840;48.892;15.312;2024-02-15T01:15:22;3.70;;;2.37;;
3647;SDS011;1840;48.892;15.312;2024-02-15T01:17:50;3.70;;;2.60;;
3647;SDS011;1840;48.892;15.312;2024-02-15T01:20:19;4.10;;;2.90;;
3647;SDS011;1840;48.892;15.312;2024-02-15T01:22:48;6.50;;;2.70;;
3647;SDS011;1840;48.892;15.312;2024-02-15T01:25:17;8.33;;;3.07;;
3647;SDS011;1840;48.892;15.312;2024-02-15T01:27:46;5.00;;;2.83;;
3647;SDS011;1840;48.892;15.312;2024-02-15T01:30:15;4.47;;;2.63;;
3647;SDS011;1840;48.892;15.312;2024-02-15T01:32:44;5.43;;;3.20;;
3647;SDS011;1840;48.892;15.312;2024-02-15T01:35:12;4.70;;;2.67;;
3647;SDS011;1840;48.892;15.312;2024-02-15T01:37:41;5.27;;;2.60;;
3647;SDS011;1840;48.892;15.312;2024-02-15T01:40:09;3.87;;;2.50;;
3647;SDS011;1840;48.892;15.312;2024-02-15T01:42:41;12.73;;;2.80;;
3647;SDS011;1840;48.892;15.312;2024-02-15T01:45:09;5.43;;;2.20;;
3647;SDS011;1840;48.892;15.312;2024-02-15T01:47:39;4.87;;;2.40;;
3647;SDS011;1840;48.892;15.312;2024-02-15T01:50:08;7.57;;;2.03;;
3647;SDS011;1840;48.892;15.312;2024-02-15T01:52:38;3.93;;;2.30;;
3647;SDS011;1840;48.892;15.312;2024-02-15T01:55:14;5.33;;;2.93;;
3647;SDS011;1840;48.892;15.312;2024-02-15T01:57:46;5.47;;;2.27;;
3647;SDS011;1840;48.892;15.312;2024-02-15T02:00:17;3.87;;;2.17;;
3647;SDS011;1840;48.892;15.312;2024-02-15T02:02:46;4.63;;;2.43;;
3647;SDS011;1840;48.892;15.312;2024-02-15T02:05:15;3.33;;;2.47;;
3647;SDS011;1840;48.892;15.312;2024-02-15T02:07:44;4.63;;;2.60;;
3647;SDS011;1840;48.892;15.312;2024-02-15T02:10:12;7.20;;;2.60;;
3647;SDS011;1840;48.892;15.312;2024-02-15T02:12:42;4.37;;;2.20;;
3647;SDS011;1840;48.892;15.312;2024-02-15T02:15:12;2.50;;;2.03;;
3647;SDS011;1840;48.892;15.312;2024-02-15T02:17:41;5.47;;;2.40;;
3647;SDS011;1840;48.892;15.312;2024-02-15T02:20:10;5.40;;;2.50;;
3647;SDS011;1840;48.892;15.312;2024-02-15T02:22:40;3.57;;;2.20;;
3647;SDS011;1840;48.892;15.312;2024-02-15T02:25:13;3.93;;;1.97;;
3647;SDS011;1840;48.892;15.312;2024-02-15T02:27:41;3.37;;;1.87;;
3647;SDS011;1840;48.892;15.312;2024-02-15T02:30:14;5.97;;;2.20;;
3647;SDS011;1840;48.892;15.312;2024-02-15T02:32:45;9.00;;;2.30;;
3647;SDS011;1840;48.892;15.312;2024-02-15T02:35:13;5.13;;;2.20;;
3647;SDS011;1840;48.892;15.312;2024-02-15T02:37:42;4.00;;;2.63;;
3647;SDS011;1840;48.892;15.312;2024-02-15T02:40:11;3.50;;;2.23;;
3647;SDS011;1840;48.892;15.312;2024-02-15T02:42:51;3.87;;;2.50;;
3647;SDS011;1840;48.892;15.312;2024-02-15T02:45:22;6.60;;;3.10;;
3647;SDS011;1840;48.892;15.312;2024-02-15T02:47:51;3.60;;;2.60;;
3647;SDS011;1840;48.892;15.312;2024-02-15T02:50:20;4.07;;;2.27;;
3647;SDS011;1840;48.892;15.312;2024-02-15T02:52:51;7.00;;;2.43;;
3647;SDS011;1840;48.892;15.312;2024-02-15T02:55:22;6.50;;;2.20;;
3647;SDS011;1840;48.892;15.312;2024-02-15T02:57:50;2.50;;;2.00;;
3647;SDS011;1840;48.892;15.312;2024-02-15T03:00:21;3.20;;;2.40;;
3647;SDS011;1840;48.892;15.312;2024-02-15T03:02:50;6.50;;;3.10;;
3647;SDS011;1840;48.892;15.312;2024-02-15T03:05:19;7.03;;;3.13;;
3647;SDS011;1840;48.892;15.312;2024-02-15T03:07:48;3.73;;;2.90;;
3647;SDS011;1840;48.892;15.312;2024-02-15T03:10:18;9.50;;;2.30;;
3647;SDS011;1840;48.892;15.312;2024-02-15T03:12:48;12.53;;;8.20;;
3647;SDS011;1840;48.892;15.312;2024-02-15T03:15:17;25.40;;;16.97;;
3647;SDS011;1840;48.892;15.312;2024-02-15T03:17:46;4.10;;;2.97;;
3647;SDS011;1840;48.892;15.312;2024-02-15T03:20:16;5.87;;;2.27;;
3647;SDS011;1840;48.892;15.312;2024-02-15T03:22:52;4.23;;;2.67;;
3647;SDS011;1840;48.892;15.312;2024-02-15T03:25:21;4.63;;;2.73;;
3647;SDS011;1840;48.892;15.312;2024-02-15T03:27:53;7.27;;;3.03;;
3647;SDS011;1840;48.892;15.312;2024-02-15T03:30:23;4.70;;;2.80;;
3647;SDS011;1840;48.892;15.312;2024-02-15T03:32:53;4.33;;;2.67;;
3647;SDS011;1840;48.892;15.312;2024-02-15T03:35:22;4.20;;;2.60;;
3647;SDS011;1840;48.892;15.312;2024-02-15T03:37:52;5.30;;;2.90;;
3647;SDS011;1840;48.892;15.312;2024-02-15T03:40:21;4.60;;;3.37;;
3647;SDS011;1840;48.892;15.312;2024-02-15T03:42:54;4.40;;;2.77;;
3647;SDS011;1840;48.892;15.312;2024-02-15T03:45:23;3.53;;;2.30;;
3647;SDS011;1840;48.892;15.312;2024-02-15T03:47:53;4.37;;;2.53;;
3647;SDS011;1840;48.892;15.312;2024-02-15T03:50:22;4.90;;;3.00;;
3647;SDS011;1840;48.892;15.312;2024-02-15T03:52:51;3.97;;;2.60;;
3647;SDS011;1840;48.892;15.312;2024-02-15T03:55:19;5.40;;;3.00;;
3647;SDS011;1840;48.892;15.312;2024-02-15T03:57:49;4.37;;;3.20;;
3647;SDS011;1840;48.892;15.312;2024-02-15T04:00:18;8.37;;;4.83;;
3647;SDS011;1840;48.892;15.312;2024-02-15T04:02:49;5.50;;;3.37;;
3647;SDS011;1840;48.892;15.312;2024-02-15T04:05:17;5.83;;;3.17;;
3647;SDS011;1840;48.892;15.312;2024-02-15T04:07:48;4.07;;;2.53;;
3647;SDS011;1840;48.892;15.312;2024-02-15T04:10:16;5.63;;;2.93;;
3647;SDS011;1840;48.892;15.312;2024-02-15T04:12:45;6.03;;;3.03;;
3647;SDS011;1840;48.892;15.312;2024-02-15T04:15:14;5.97;;;3.20;;
3647;SDS011;1840;48.892;15.312;2024-02-15T04:17:46;5.30;;;3.07;;
3647;SDS011;1840;48.892;15.312;2024-02-15T04:20:15;6.53;;;3.10;;
3647;SDS011;1840;48.892;15.312;2024-02-15T04:22:44;4.47;;;3.00;;
3647;SDS011;1840;48.892;15.312;2024-02-15T04:25:14;4.87;;;2.67;;
3647;SDS011;1840;48.892;15.312;2024-02-15T04:27:44;3.43;;;2.60;;
3647;SDS011;1840;48.892;15.312;2024-02-15T04:30:14;3.50;;;2.60;;
3647;SDS011;1840;48.892;15.312;2024-02-15T04:32:43;3.63;;;2.40;;
3647;SDS011;1840;48.892;15.312;2024-02-15T04:35:14;7.80;;;2.90;;
3647;SDS011;1840;48.892;15.312;2024-02-15T04:37:42;2.90;;;2.37;;
3647;SDS011;1840;48.892;15.312;2024-02-15T04:40:13;5.70;;;3.07;;
3647;SDS011;1840;48.892;15.312;2024-02-15T04:42:41;5.40;;;3.40;;
3647;SDS011;1840;48.892;15.312;2024-02-15T04:45:12;3.63;;;3.00;;
3647;SDS011;1840;48.892;15.312;2024-02-15T04:47:42;4.20;;;2.80;;
3647;SDS011;1840;48.892;15.312;2024-02-15T04:50:15;4.57;;;3.03;;
3647;SDS011;1840;48.892;15.312;2024-02-15T04:52:45;4.80;;;3.23;;
3647;SDS011;1840;48.892;15.312;2024-02-15T04:55:16;4.90;;;3.13;;
3647;SDS011;1840;48.892;15.312;2024-02-15T04:57:45;4.13;;;3.17;;
3647;SDS011;1840;48.892;15.312;2024-02-15T05:00:16;4.00;;;2.93;;
3647;SDS011;1840;48.892;15.312;2024-02-15T05:02:47;3.93;;;2.67;;
3647;SDS011;1840;48.892;15.312;2024-02-15T05:05:18;3.20;;;2.83;;
3647;SDS011;1840;48.892;15.312;2024-02-15T05:07:48;8.70;;;2.70;;
3647;SDS011;1840;48.892;15.312;2024-02-15T05:10:16;4.87;;;3.00;;
3647;SDS011;1840;48.892;15.312;2024-02-15T05:12:45;6.13;;;3.40;;
3647;SDS011;1840;48.892;15.312;2024-02-15T05:15:15;5.17;;;3.70;;
3647;SDS011;1840;48.892;15.312;2024-02-15T05:17:45;4.70;;;3.63;;
3647;SDS011;1840;48.892;15.312;2024-02-15T05:20:15;6.40;;;3.33;;
3647;SDS011;1840;48.892;15.312;2024-02-15T05:22:45;4.90;;;3.50;;
3647;SDS011;1840;48.892;15.312;2024-02-15T05:25:16;5.90;;;3.07;;
3647;SDS011;1840;48.892;15.312;2024-02-15T05:27:51;6.80;;;3.73;;
3647;SDS011;1840;48.892;15.312;2024-02-15T05:30:24;5.70;;;4.00;;
3647;SDS011;1840;48.892;15.312;2024-02-15T05:32:53;4.07;;;3.10;;
3647;SDS011;1840;48.892;15.312;2024-02-15T05:35:23;5.60;;;3.67;;
3647;SDS011;1840;48.892;15.312;2024-02-15T05:37:54;6.73;;;3.73;;
3647;SDS011;1840;48.892;15.312;2024-02-15T05:40:23;6.23;;;3.20;;
3647;SDS011;1840;48.892;15.312;2024-02-15T05:42:54;6.10;;;3.90;;
3647;SDS011;1840;48.892;15.312;2024-02-15T05:45:28;5.13;;;3.40;;
3647;SDS011;1840;48.892;15.312;2024-02-15T05:47:59;4.90;;;3.70;;
3647;SDS011;1840;48.892;15.312;2024-02-15T05:50:29;4.90;;;3.80;;
3647;SDS011;1840;48.892;15.312;2024-02-15T05:52:59;6.17;;;4.20;;
3647;SDS011;1840;48.892;15.312;2024-02-15T05:55:28;6.03;;;4.50;;
3647;SDS011;1840;48.892;15.312;2024-02-15T05:58:00;7.53;;;4.77;;
3647;SDS011;1840;48.892;15.312;2024-02-15T06:00:31;5.83;;;4.27;;
3647;SDS011;1840;48.892;15.312;2024-02-15T06:03:01;7.37;;;4.50;;
3647;SDS011;1840;48.892;15.312;2024-02-15T06:05:30;7.37;;;4.27;;
3647;SDS011;1840;48.892;15.312;2024-02-15T06:08:00;7.63;;;4.97;;
3647;SDS011;1840;48.892;15.312;2024-02-15T06:10:29;5.90;;;4.47;;
3647;SDS011;1840;48.892;15.312;2024-02-15T06:12:58;5.90;;;4.70;;
3647;SDS011;1840;48.892;15.312;2024-02-15T06:15:26;9.17;;;5.70;;
3647;SDS011;1840;48.892;15.312;2024-02-15T06:17:55;14.93;;;5.20;;
3647;SDS011;1840;48.892;15.312;2024-02-15T06:20:23;10.93;;;5.13;;
3647;SDS011;1840;48.892;15.312;2024-02-15T06:22:55;6.40;;;4.80;;
3647;SDS011;1840;48.892;15.312;2024-02-15T06:25:25;7.93;;;5.50;;
3647;SDS011;1840;48.892;15.312;2024-02-15T06:27:54;10.53;;;5.13;;
3647;SDS011;1840;48.892;15.312;2024-02-15T06:30:28;10.40;;;5.50;;
3647;SDS011;1840;48.892;15.312;2024-02-15T06:33:14;12.20;;;5.03;;
3647;SDS011;1840;48.892;15.312;2024-02-15T06:36:03;11.20;;;4.97;;
3647;SDS011;1840;48.892;15.312;2024-02-15T06:38:50;7.87;;;4.90;;
3647;SDS011;1840;48.892;15.312;2024-02-15T06:41:34;15.63;;;5.00;;
3647;SDS011;1840;48.892;15.312;2024-02-15T06:44:03;6.13;;;4.63;;
3647;SDS011;1840;48.892;15.312;2024-02-15T06:46:32;9.67;;;5.20;;
3647;SDS011;1840;48.892;15.312;2024-02-15T06:49:00;8.23;;;5.30;;
3647;SDS011;1840;48.892;15.312;2024-02-15T06:51:32;6.83;;;4.30;;
3647;SDS011;1840;48.892;15.312;2024-02-15T06:54:00;6.23;;;4.37;;
3647;SDS011;1840;48.892;15.312;2024-02-15T06:56:29;9.30;;;4.60;;
3647;SDS011;1840;48.892;15.312;2024-02-15T06:58:59;6.60;;;5.20;;
3647;SDS011;1840;48.892;15.312;2024-02-15T07:01:29;8.47;;;5.63;;
3647;SDS011;1840;48.892;15.312;2024-02-15T07:04:00;6.63;;;4.80;;
3647;SDS011;1840;48.892;15.312;2024-02-15T07:06:29;8.43;;;5.13;;
3647;SDS011;1840;48.892;15.312;2024-02-15T07:08:58;7.93;;;4.57;;
3647;SDS011;1840;48.892;15.312;2024-02-15T07:11:27;12.83;;;5.30;;
3647;SDS011;1840;48.892;15.312;2024-02-15T07:13:56;7.93;;;5.80;;
3647;SDS011;1840;48.892;15.312;2024-02-15T07:16:26;8.80;;;4.70;;
3647;SDS011;1840;48.892;15.312;2024-02-15T07:18:55;13.70;;;5.40;;
3647;SDS011;1840;48.892;15.312;2024-02-15T07:21:24;17.07;;;7.23;;
3647;SDS011;1840;48.892;15.312;2024-02-15T07:23:53;11.70;;;6.87;;
3647;SDS011;1840;48.892;15.312;2024-02-15T07:26:23;8.60;;;6.60;;
3647;SDS011;1840;48.892;15.312;2024-02-15T07:28:52;10.60;;;6.70;;
3647;SDS011;1840;48.892;15.312;2024-02-15T07:31:22;12.00;;;7.00;;
3647;SDS011;1840;48.892;15.312;2024-02-15T07:33:56;12.47;;;7.40;;
3647;SDS011;1840;48.892;15.312;2024-02-15T07:36:26;15.40;;;7.30;;
3647;SDS011;1840;48.892;15.312;2024-02-15T07:38:54;11.60;;;7.30;;
3647;SDS011;1840;48.892;15.312;2024-02-15T07:41:28;11.90;;;7.53;;
3647;SDS011;1840;48.892;15.312;2024-02-15T07:44:00;11.73;;;7.00;;
3647;SDS011;1840;48.892;15.312;2024-02-15T07:46:28;13.17;;;7.00;;
3647;SDS011;1840;48.892;15.312;2024-02-15T07:48:58;12.10;;;6.80;;
3647;SDS011;1840;48.892;15.312;2024-02-15T07:51:29;10.93;;;6.40;;
3647;SDS011;1840;48.892;15.312;2024-02-15T07:53:57;17.43;;;7.23;;
3647;SDS011;1840;48.892;15.312;2024-02-15T07:56:33;14.77;;;6.80;;
3647;SDS011;1840;48.892;15.312;2024-02-15T07:59:02;21.83;;;7.37;;
3647;SDS011;1840;48.892;15.312;2024-02-15T08:01:31;13.97;;;7.40;;
3647;SDS011;1840;48.892;15.312;2024-02-15T08:04:01;9.33;;;6.67;;
3647;SDS011;1840;48.892;15.312;2024-02-15T08:06:29;10.30;;;7.03;;
3647;SDS011;1840;48.892;15.312;2024-02-15T08:08:59;10.37;;;7.20;;
3647;SDS011;1840;48.892;15.312;2024-02-15T08:11:31;9.73;;;6.30;;
3647;SDS011;1840;48.892;15.312;2024-02-15T08:13:59;12.87;;;6.97;;
3647;SDS011;1840;48.892;15.312;2024-02-15T08:16:29;8.73;;;5.80;;
3647;SDS011;1840;48.892;15.312;2024-02-15T08:18:58;10.23;;;6.60;;
3647;SDS011;1840;48.892;15.312;2024-02-15T08:21:30;10.13;;;6.40;;
3647;SDS011;1840;48.892;15.312;2024-02-15T08:24:00;10.03;;;7.10;;
3647;SDS011;1840;48.892;15.312;2024-02-15T08:26:33;9.87;;;6.73;;
3647;SDS011;1840;48.892;15.312;2024-02-15T08:29:05;13.97;;;6.30;;
3647;SDS011;1840;48.892;15.312;2024-02-15T08:31:34;9.00;;;6.43;;
3647;SDS011;1840;48.892;15.312;2024-02-15T08:34:03;44.63;;;20.97;;
3647;SDS011;1840;48.892;15.312;2024-02-15T08:36:34;9.30;;;6.57;;
3647;SDS011;1840;48.892;15.312;2024-02-15T08:39:03;11.73;;;7.53;;
3647;SDS011;1840;48.892;15.312;2024-02-15T08:41:32;12.23;;;6.40;;
3647;SDS011;1840;48.892;15.312;2024-02-15T08:44:01;9.37;;;6.10;;
3647;SDS011;1840;48.892;15.312;2024-02-15T08:46:35;9.63;;;6.77;;
3647;SDS011;1840;48.892;15.312;2024-02-15T08:49:03;10.50;;;6.90;;
3647;SDS011;1840;48.892;15.312;2024-02-15T08:51:35;12.70;;;9.90;;
3647;SDS011;1840;48.892;15.312;2024-02-15T08:54:04;10.10;;;5.17;;
3647;SDS011;1840;48.892;15.312;2024-02-15T08:56:33;8.67;;;5.17;;
3647;SDS011;1840;48.892;15.312;2024-02-15T08:59:03;8.53;;;6.17;;
3647;SDS011;1840;48.892;15.312;2024-02-15T09:01:32;10.37;;;6.17;;
3647;SDS011;1840;48.892;15.312;2024-02-15T09:04:00;6.97;;;5.00;;
3647;SDS011;1840;48.892;15.312;2024-02-15T09:06:29;5.70;;;4.23;;
3647;SDS011;1840;48.892;15.312;2024-02-15T09:08:59;6.53;;;4.20;;
3647;SDS011;1840;48.892;15.312;2024-02-15T09:11:30;7.23;;;5.10;;
3647;SDS011;1840;48.892;15.312;2024-02-15T09:14:01;6.90;;;4.20;;
3647;SDS011;1840;48.892;15.312;2024-02-15T09:16:30;6.43;;;4.53;;
3647;SDS011;1840;48.892;15.312;2024-02-15T09:19:00;7.90;;;4.80;;
3647;SDS011;1840;48.892;15.312;2024-02-15T09:21:30;5.30;;;4.03;;
3647;SDS011;1840;48.892;15.312;2024-02-15T09:24:01;7.40;;;4.77;;
3647;SDS011;1840;48.892;15.312;2024-02-15T09:26:30;6.90;;;4.40;;
3647;SDS011;1840;48.892;15.312;2024-02-15T09:28:58;6.33;;;3.60;;
3647;SDS011;1840;48.892;15.312;2024-02-15T09:31:29;6.77;;;4.07;;
3647;SDS011;1840;48.892;15.312;2024-02-15T09:33:57;8.60;;;4.17;;
3647;SDS011;1840;48.892;15.312;2024-02-15T09:36:26;7.13;;;4.10;;
3647;SDS011;1840;48.892;15.312;2024-02-15T09:38:55;9.80;;;4.50;;
3647;SDS011;1840;48.892;15.312;2024-02-15T09:41:27;8.03;;;5.23;;
3647;SDS011;1840;48.892;15.312;2024-02-15T09:43:57;6.77;;;4.23;;
3647;SDS011;1840;48.892;15.312;2024-02-15T09:46:26;13.83;;;4.77;;
3647;SDS011;1840;48.892;15.312;2024-02-15T09:48:58;10.23;;;5.60;;
3647;SDS011;1840;48.892;15.312;2024-02-15T09:51:27;5.60;;;4.13;;
3647;SDS011;1840;48.892;15.312;2024-02-15T09:53:57;11.10;;;5.23;;
3647;SDS011;1840;48.892;15.312;2024-02-15T09:56:28;7.17;;;4.07;;
3647;SDS011;1840;48.892;15.312;2024-02-15T09:58:59;8.63;;;5.10;;
3647;SDS011;1840;48.892;15.312;2024-02-15T10:01:30;6.37;;;3.93;;
3647;SDS011;1840;48.892;15.312;2024-02-15T10:03:59;6.30;;;3.73;;
3647;SDS011;1840;48.892;15.312;2024-02-15T10:06:33;6.90;;;3.70;;
3647;SDS011;1840;48.892;15.312;2024-02-15T10:11:55;6.60;;;3.07;;
3647;SDS011;1840;48.892;15.312;2024-02-15T10:14:25;4.80;;;2.23;;
3647;SDS011;1840;48.892;15.312;2024-02-15T10:16:55;8.03;;;3.23;;
3647;SDS011;1840;48.892;15.312;2024-02-15T10:19:24;5.70;;;1.40;;
3647;SDS011;1840;48.892;15.312;2024-02-15T10:21:53;2.70;;;1.27;;
3647;SDS011;1840;48.892;15.312;2024-02-15T10:24:23;12.33;;;1.50;;
3647;SDS011;1840;48.892;15.312;2024-02-15T10:26:59;3.20;;;1.33;;
3647;SDS011;1840;48.892;15.312;2024-02-15T10:29:31;7.60;;;1.60;;
3647;SDS011;1840;48.892;15.312;2024-02-15T10:32:00;2.57;;;1.30;;
3647;SDS011;1840;48.892;15.312;2024-02-15T10:34:31;3.50;;;1.67;;
3647;SDS011;1840;48.892;15.312;2024-02-15T10:37:10;4.20;;;1.63;;
3647;SDS011;1840;48.892;15.312;2024-02-15T10:39:39;15.90;;;1.87;;
3647;SDS011;1840;48.892;15.312;2024-02-15T10:42:09;6.40;;;1.40;;
3647;SDS011;1840;48.892;15.312;2024-02-15T10:44:38;16.17;;;1.83;;
3647;SDS011;1840;48.892;15.312;2024-02-15T10:47:07;3.43;;;1.00;;
3647;SDS011;1840;48.892;15.312;2024-02-15T10:49:36;3.73;;;0.80;;
3647;SDS011;1840;48.892;15.312;2024-02-15T10:52:06;2.80;;;1.23;;
3647;SDS011;1840;48.892;15.312;2024-02-15T10:54:40;4.90;;;0.80;;
3647;SDS011;1840;48.892;15.312;2024-02-15T10:57:11;6.10;;;0.80;;
3647;SDS011;1840;48.892;15.312;2024-02-15T10:59:43;1.73;;;0.77;;
3647;SDS011;1840;48.892;15.312;2024-02-15T11:02:23;1.90;;;0.80;;
3647;SDS011;1840;48.892;15.312;2024-02-15T11:05:01;10.70;;;1.60;;
3647;SDS011;1840;48.892;15.312;2024-02-15T11:07:32;1.80;;;0.90;;
3647;SDS011;1840;48.892;15.312;2024-02-15T11:10:01;9.73;;;0.83;;
3647;SDS011;1840;48.892;15.312;2024-02-15T11:12:34;3.20;;;0.90;;
3647;SDS011;1840;48.892;15.312;2024-02-15T11:15:06;1.60;;;0.73;;
3647;SDS011;1840;48.892;15.312;2024-02-15T11:17:46;1.83;;;0.90;;
3647;SDS011;1840;48.892;15.312;2024-02-15T11:23:26;1.70;;;0.70;;
3647;SDS011;1840;48.892;15.312;2024-02-15T11:25:57;1.70;;;0.80;;
3647;SDS011;1840;48.892;15.312;2024-02-15T11:28:38;1.90;;;0.90;;
3647;SDS011;1840;48.892;15.312;2024-02-15T11:31:07;11.27;;;1.17;;
3647;SDS011;1840;48.892;15.312;2024-02-15T11:40:18;3.13;;;1.10;;
3647;SDS011;1840;48.892;15.312;2024-02-15T11:42:49;8.83;;;1.10;;
3647;SDS011;1840;48.892;15.312;2024-02-15T11:45:21;2.50;;;1.00;;
3647;SDS011;1840;48.892;15.312;2024-02-15T11:47:52;1.83;;;1.00;;
3647;SDS011;1840;48.892;15.312;2024-02-15T11:50:22;2.93;;;1.10;;
3647;SDS011;1840;48.892;15.312;2024-02-15T11:52:51;1.60;;;0.80;;
3647;SDS011;1840;48.892;15.312;2024-02-15T11:55:32;1.70;;;0.80;;
3647;SDS011;1840;48.892;15.312;2024-02-15T11:58:02;1.93;;;1.00;;
3647;SDS011;1840;48.892;15.312;2024-02-15T12:00:45;1.60;;;0.80;;
3647;SDS011;1840;48.892;15.312;2024-02-15T12:03:31;1.67;;;0.90;;
3647;SDS011;1840;48.892;15.312;2024-02-15T12:06:32;2.90;;;1.20;;
3647;SDS011;1840;48.892;15.312;2024-02-15T12:09:19;8.33;;;1.33;;
3647;SDS011;1840;48.892;15.312;2024-02-15T12:12:05;2.53;;;0.90;;
3647;SDS011;1840;48.892;15.312;2024-02-15T12:14:57;8.27;;;1.40;;
3647;SDS011;1840;48.892;15.312;2024-02-15T12:17:44;2.63;;;1.00;;
3647;SDS011;1840;48.892;15.312;2024-02-15T12:20:31;2.00;;;0.90;;
3647;SDS011;1840;48.892;15.312;2024-02-15T12:23:00;1.87;;;0.90;;
3647;SDS011;1840;48.892;15.312;2024-02-15T12:25:30;1.73;;;0.93;;
3647;SDS011;1840;48.892;15.312;2024-02-15T12:28:00;1.90;;;1.00;;
3647;SDS011;1840;48.892;15.312;2024-02-15T12:30:32;3.13;;;1.27;;
3647;SDS011;1840;48.892;15.312;2024-02-15T12:33:12;2.37;;;1.10;;
3647;SDS011;1840;48.892;15.312;2024-02-15T12:35:47;6.10;;;1.10;;
3647;SDS011;1840;48.892;15.312;2024-02-15T12:38:16;7.90;;;0.90;;
3647;SDS011;1840;48.892;15.312;2024-02-15T12:40:45;3.03;;;0.77;;
3647;SDS011;1840;48.892;15.312;2024-02-15T12:43:15;3.30;;;1.10;;
3647;SDS011;1840;48.892;15.312;2024-02-15T12:45:43;1.80;;;0.90;;
3647;SDS011;1840;48.892;15.312;2024-02-15T12:48:13;1.60;;;0.70;;
3647;SDS011;1840;48.892;15.312;2024-02-15T12:50:42;4.63;;;0.90;;
3647;SDS011;1840;48.892;15.312;2024-02-15T12:53:11;4.23;;;1.73;;
3647;SDS011;1840;48.892;15.312;2024-02-15T12:55:39;5.37;;;1.20;;
3647;SDS011;1840;48.892;15.312;2024-02-15T12:58:12;9.50;;;0.80;;
3647;SDS011;1840;48.892;15.312;2024-02-15T13:00:42;1.50;;;0.70;;
3647;SDS011;1840;48.892;15.312;2024-02-15T13:03:12;1.40;;;0.70;;
3647;SDS011;1840;48.892;15.312;2024-02-15T13:05:42;1.63;;;0.80;;
3647;SDS011;1840;48.892;15.312;2024-02-15T13:08:11;2.80;;;1.20;;
3647;SDS011;1840;48.892;15.312;2024-02-15T13:10:41;6.67;;;2.40;;
3647;SDS011;1840;48.892;15.312;2024-02-15T13:13:10;1.60;;;0.90;;
3647;SDS011;1840;48.892;15.312;2024-02-15T13:15:41;1.50;;;0.73;;
3647;SDS011;1840;48.892;15.312;2024-02-15T13:18:10;1.90;;;0.90;;
3647;SDS011;1840;48.892;15.312;2024-02-15T13:20:42;1.50;;;0.80;;
3647;SDS011;1840;48.892;15.312;2024-02-15T13:23:11;1.57;;;0.90;;
3647;SDS011;1840;48.892;15.312;2024-02-15T13:25:46;3.33;;;0.77;;
3647;SDS011;1840;48.892;15.312;2024-02-15T13:28:15;4.03;;;1.30;;
3647;SDS011;1840;48.892;15.312;2024-02-15T13:30:45;3.77;;;1.87;;
3647;SDS011;1840;48.892;15.312;2024-02-15T13:33:17;1.93;;;1.00;;
3647;SDS011;1840;48.892;15.312;2024-02-15T13:35:47;1.60;;;0.90;;
3647;SDS011;1840;48.892;15.312;2024-02-15T13:38:17;1.80;;;0.83;;
3647;SDS011;1840;48.892;15.312;2024-02-15T13:40:51;1.70;;;0.73;;
3647;SDS011;1840;48.892;15.312;2024-02-15T13:43:22;2.00;;;0.80;;
3647;SDS011;1840;48.892;15.312;2024-02-15T13:45:51;3.50;;;1.03;;
3647;SDS011;1840;48.892;15.312;2024-02-15T13:48:21;24.70;;;2.47;;
3647;SDS011;1840;48.892;15.312;2024-02-15T13:50:51;1.80;;;0.80;;
3647;SDS011;1840;48.892;15.312;2024-02-15T13:53:20;2.20;;;0.93;;
3647;SDS011;1840;48.892;15.312;2024-02-15T13:55:51;1.63;;;0.80;;
3647;SDS011;1840;48.892;15.312;2024-02-15T13:58:20;3.00;;;1.07;;
3647;SDS011;1840;48.892;15.312;2024-02-15T14:00:48;1.73;;;0.90;;
3647;SDS011;1840;48.892;15.312;2024-02-15T14:03:18;2.23;;;1.13;;
3647;SDS011;1840;48.892;15.312;2024-02-15T14:05:50;2.67;;;1.07;;
3647;SDS011;1840;48.892;15.312;2024-02-15T14:08:18;2.67;;;1.20;;
3647;SDS011;1840;48.892;15.312;2024-02-15T14:10:47;8.00;;;1.80;;
3647;SDS011;1840;48.892;15.312;2024-02-15T14:13:16;2.20;;;0.97;;
3647;SDS011;1840;48.892;15.312;2024-02-15T14:15:44;1.80;;;0.83;;
3647;SDS011;1840;48.892;15.312;2024-02-15T14:18:13;2.00;;;1.10;;
3647;SDS011;1840;48.892;15.312;2024-02-15T14:20:43;5.60;;;1.40;;
3647;SDS011;1840;48.892;15.312;2024-02-15T14:23:15;2.80;;;1.57;;
3647;SDS011;1840;48.892;15.312;2024-02-15T14:25:44;3.47;;;1.80;;
3647;SDS011;1840;48.892;15.312;2024-02-15T14:28:12;4.37;;;2.17;;
3647;SDS011;1840;48.892;15.312;2024-02-15T14:30:42;3.57;;;2.80;;
3647;SDS011;1840;48.892;15.312;2024-02-15T14:33:28;7.20;;;2.97;;
3647;SDS011;1840;48.892;15.312;2024-02-15T14:36:01;3.60;;;1.70;;
3647;SDS011;1840;48.892;15.312;2024-02-15T14:38:33;2.20;;;1.30;;
3647;SDS011;1840;48.892;15.312;2024-02-15T14:41:02;3.10;;;1.67;;
3647;SDS011;1840;48.892;15.312;2024-02-15T14:43:34;2.93;;;1.47;;
3647;SDS011;1840;48.892;15.312;2024-02-15T14:46:02;5.60;;;1.77;;
3647;SDS011;1840;48.892;15.312;2024-02-15T14:48:32;3.23;;;1.83;;
3647;SDS011;1840;48.892;15.312;2024-02-15T14:51:01;3.23;;;2.03;;
3647;SDS011;1840;48.892;15.312;2024-02-15T14:53:32;5.63;;;2.37;;
3647;SDS011;1840;48.892;15.312;2024-02-15T14:56:01;3.20;;;2.03;;
3647;SDS011;1840;48.892;15.312;2024-02-15T14:58:31;7.63;;;2.77;;
3647;SDS011;1840;48.892;15.312;2024-02-15T15:00:59;3.87;;;2.60;;
3647;SDS011;1840;48.892;15.312;2024-02-15T15:03:35;2.90;;;1.87;;
3647;SDS011;1840;48.892;15.312;2024-02-15T15:06:06;3.13;;;1.60;;
3647;SDS011;1840;48.892;15.312;2024-02-15T15:08:54;8.83;;;5.20;;
3647;SDS011;1840;48.892;15.312;2024-02-15T15:11:42;6.87;;;4.77;;
3647;SDS011;1840;48.892;15.312;2024-02-15T15:14:31;7.47;;;4.30;;
3647;SDS011;1840;48.892;15.312;2024-02-15T15:16:59;13.47;;;6.60;;
3647;SDS011;1840;48.892;15.312;2024-02-15T15:19:29;40.40;;;22.40;;
3647;SDS011;1840;48.892;15.312;2024-02-15T15:21:58;24.20;;;14.27;;
3647;SDS011;1840;48.892;15.312;2024-02-15T15:24:29;110.97;;;54.47;;
3647;SDS011;1840;48.892;15.312;2024-02-15T15:26:58;55.57;;;27.57;;
3647;SDS011;1840;48.892;15.312;2024-02-15T15:29:27;116.47;;;52.27;;
3647;SDS011;1840;48.892;15.312;2024-02-15T15:31:57;85.60;;;40.00;;